sensor_id;sensor_type;location;lat;lon;timestamp;P1;durP1;ratioP1;P2;durP2;ratioP2
74459;SDS011;62902;48.854;9.292;2022-08-21T00:00:16;8.93;;;4.45;;
74459;SDS011;62902;48.854;9.292;2022-08-21T00:02:59;9.45;;;6.00;;
74459;SDS011;62902;48.854;9.292;2022-08-21T00:05:28;11.23;;;5.78;;
74459;SDS011;62902;48.854;9.292;2022-08-21T00:07:56;10.52;;;5.03;;
74459;SDS011;62902;48.854;9.292;2022-08-21T00:10:23;9.77;;;4.95;;
74459;SDS011;62902;48.854;9.292;2022-08-21T00:12:50;8.18;;;4.80;;
74459;SDS011;62902;48.854;9.292;2022-08-21T00:15:19;9.27;;;4.70;;
74459;SDS011;62902;48.854;9.292;2022-08-21T00:17:48;10.82;;;4.18;;
74459;SDS011;62902;48.854;9.292;2022-08-21T00:20:15;9.07;;;4.10;;
74459;SDS011;62902;48.854;9.292;2022-08-21T00:22:42;9.30;;;4.53;;
74459;SDS011;62902;48.854;9.292;2022-08-21T00:25:09;8.70;;;4.18;;
74459;SDS011;62902;48.854;9.292;2022-08-21T00:27:36;10.27;;;4.00;;
74459;SDS011;62902;48.854;9.292;2022-08-21T00:30:04;6.80;;;4.47;;
74459;SDS011;62902;48.854;9.292;2022-08-21T00:32:32;13.05;;;5.03;;
74459;SDS011;62902;48.854;9.292;2022-08-21T00:34:59;10.32;;;4.30;;
74459;SDS011;62902;48.854;9.292;2022-08-21T00:37:26;7.85;;;4.50;;
74459;SDS011;62902;48.854;9.292;2022-08-21T00:39:55;7.43;;;4.22;;
74459;SDS011;62902;48.854;9.292;2022-08-21T00:42:22;7.03;;;4.28;;
74459;SDS011;62902;48.854;9.292;2022-08-21T00:44:49;8.32;;;4.40;;
74459;SDS011;62902;48.854;9.292;2022-08-21T00:47:17;7.25;;;4.35;;
74459;SDS011;62902;48.854;9.292;2022-08-21T00:52:17;6.45;;;4.00;;
74459;SDS011;62902;48.854;9.292;2022-08-21T00:54:46;10.25;;;4.28;;
74459;SDS011;62902;48.854;9.292;2022-08-21T00:57:15;8.25;;;4.13;;
74459;SDS011;62902;48.854;9.292;2022-08-21T00:59:45;6.38;;;4.30;;
74459;SDS011;62902;48.854;9.292;2022-08-21T01:02:15;7.60;;;4.22;;
74459;SDS011;62902;48.854;9.292;2022-08-21T01:07:09;9.15;;;3.75;;
74459;SDS011;62902;48.854;9.292;2022-08-21T01:09:37;5.97;;;3.75;;
74459;SDS011;62902;48.854;9.292;2022-08-21T01:12:03;9.05;;;3.63;;
74459;SDS011;62902;48.854;9.292;2022-08-21T01:14:31;7.55;;;3.55;;
74459;SDS011;62902;48.854;9.292;2022-08-21T01:16:58;11.13;;;4.45;;
74459;SDS011;62902;48.854;9.292;2022-08-21T01:19:25;10.75;;;4.07;;
74459;SDS011;62902;48.854;9.292;2022-08-21T01:21:53;8.07;;;4.35;;
74459;SDS011;62902;48.854;9.292;2022-08-21T01:24:20;8.48;;;4.72;;
74459;SDS011;62902;48.854;9.292;2022-08-21T01:26:47;11.02;;;4.53;;
74459;SDS011;62902;48.854;9.292;2022-08-21T01:31:54;7.75;;;4.50;;
74459;SDS011;62902;48.854;9.292;2022-08-21T01:34:20;10.25;;;4.28;;
74459;SDS011;62902;48.854;9.292;2022-08-21T01:36:47;10.98;;;4.45;;
74459;SDS011;62902;48.854;9.292;2022-08-21T01:39:14;6.88;;;4.57;;
74459;SDS011;62902;48.854;9.292;2022-08-21T01:41:41;9.40;;;4.72;;
74459;SDS011;62902;48.854;9.292;2022-08-21T01:44:08;13.23;;;4.43;;
74459;SDS011;62902;48.854;9.292;2022-08-21T01:46:35;9.20;;;4.90;;
74459;SDS011;62902;48.854;9.292;2022-08-21T01:49:02;7.97;;;4.28;;
74459;SDS011;62902;48.854;9.292;2022-08-21T01:51:29;8.13;;;4.38;;
74459;SDS011;62902;48.854;9.292;2022-08-21T01:53:56;7.88;;;3.75;;
74459;SDS011;62902;48.854;9.292;2022-08-21T01:56:22;10.43;;;4.20;;
74459;SDS011;62902;48.854;9.292;2022-08-21T01:58:51;6.45;;;3.80;;
74459;SDS011;62902;48.854;9.292;2022-08-21T02:01:17;5.88;;;3.85;;
74459;SDS011;62902;48.854;9.292;2022-08-21T02:03:44;7.57;;;3.80;;
74459;SDS011;62902;48.854;9.292;2022-08-21T02:06:14;8.77;;;4.00;;
74459;SDS011;62902;48.854;9.292;2022-08-21T02:08:44;7.00;;;3.78;;
74459;SDS011;62902;48.854;9.292;2022-08-21T02:13:38;5.40;;;3.20;;
74459;SDS011;62902;48.854;9.292;2022-08-21T02:16:05;5.20;;;3.28;;
74459;SDS011;62902;48.854;9.292;2022-08-21T02:18:33;7.45;;;3.75;;
74459;SDS011;62902;48.854;9.292;2022-08-21T02:21:00;6.72;;;3.72;;
74459;SDS011;62902;48.854;9.292;2022-08-21T02:23:27;5.68;;;3.50;;
74459;SDS011;62902;48.854;9.292;2022-08-21T02:25:55;6.80;;;3.75;;
74459;SDS011;62902;48.854;9.292;2022-08-21T02:28:23;7.82;;;3.88;;
74459;SDS011;62902;48.854;9.292;2022-08-21T02:30:53;9.80;;;4.38;;
74459;SDS011;62902;48.854;9.292;2022-08-21T02:33:20;7.40;;;4.50;;
74459;SDS011;62902;48.854;9.292;2022-08-21T02:35:48;6.50;;;3.65;;
74459;SDS011;62902;48.854;9.292;2022-08-21T02:40:44;6.15;;;3.28;;
74459;SDS011;62902;48.854;9.292;2022-08-21T02:43:16;6.13;;;3.25;;
74459;SDS011;62902;48.854;9.292;2022-08-21T02:45:44;5.05;;;3.08;;
74459;SDS011;62902;48.854;9.292;2022-08-21T02:48:12;5.93;;;3.17;;
74459;SDS011;62902;48.854;9.292;2022-08-21T02:50:43;6.05;;;2.95;;
74459;SDS011;62902;48.854;9.292;2022-08-21T02:53:13;10.30;;;3.30;;
74459;SDS011;62902;48.854;9.292;2022-08-21T02:55:45;5.57;;;3.28;;
74459;SDS011;62902;48.854;9.292;2022-08-21T02:58:14;8.27;;;3.20;;
74459;SDS011;62902;48.854;9.292;2022-08-21T03:00:42;7.50;;;3.20;;
74459;SDS011;62902;48.854;9.292;2022-08-21T03:03:09;5.78;;;3.30;;
74459;SDS011;62902;48.854;9.292;2022-08-21T03:05:36;7.13;;;3.85;;
74459;SDS011;62902;48.854;9.292;2022-08-21T03:08:04;6.60;;;3.92;;
74459;SDS011;62902;48.854;9.292;2022-08-21T03:10:37;6.50;;;4.18;;
74459;SDS011;62902;48.854;9.292;2022-08-21T03:13:06;5.90;;;3.45;;
74459;SDS011;62902;48.854;9.292;2022-08-21T03:15:33;6.03;;;3.10;;
74459;SDS011;62902;48.854;9.292;2022-08-21T03:18:01;7.30;;;4.05;;
74459;SDS011;62902;48.854;9.292;2022-08-21T03:20:29;5.15;;;3.20;;
74459;SDS011;62902;48.854;9.292;2022-08-21T03:22:58;6.30;;;2.95;;
74459;SDS011;62902;48.854;9.292;2022-08-21T03:25:26;4.78;;;2.97;;
74459;SDS011;62902;48.854;9.292;2022-08-21T03:28:07;7.18;;;3.50;;
74459;SDS011;62902;48.854;9.292;2022-08-21T03:30:40;5.90;;;3.38;;
74459;SDS011;62902;48.854;9.292;2022-08-21T03:33:07;10.45;;;3.95;;
74459;SDS011;62902;48.854;9.292;2022-08-21T03:35:38;6.25;;;3.88;;
74459;SDS011;62902;48.854;9.292;2022-08-21T03:38:05;5.90;;;3.83;;
74459;SDS011;62902;48.854;9.292;2022-08-21T03:40:31;7.10;;;4.20;;
74459;SDS011;62902;48.854;9.292;2022-08-21T03:42:58;7.65;;;4.47;;
74459;SDS011;62902;48.854;9.292;2022-08-21T03:45:25;9.23;;;4.75;;
74459;SDS011;62902;48.854;9.292;2022-08-21T03:47:53;9.60;;;5.20;;
74459;SDS011;62902;48.854;9.292;2022-08-21T03:50:22;7.90;;;4.75;;
74459;SDS011;62902;48.854;9.292;2022-08-21T03:52:50;7.60;;;4.88;;
74459;SDS011;62902;48.854;9.292;2022-08-21T03:55:18;7.45;;;4.70;;
74459;SDS011;62902;48.854;9.292;2022-08-21T03:57:44;9.25;;;5.10;;
74459;SDS011;62902;48.854;9.292;2022-08-21T04:00:12;6.47;;;4.53;;
74459;SDS011;62902;48.854;9.292;2022-08-21T04:02:40;8.00;;;4.80;;
74459;SDS011;62902;48.854;9.292;2022-08-21T04:05:07;7.00;;;4.70;;
74459;SDS011;62902;48.854;9.292;2022-08-21T04:07:34;10.13;;;4.53;;
74459;SDS011;62902;48.854;9.292;2022-08-21T04:10:00;6.78;;;4.25;;
74459;SDS011;62902;48.854;9.292;2022-08-21T04:12:27;8.60;;;4.63;;
74459;SDS011;62902;48.854;9.292;2022-08-21T04:14:54;9.32;;;4.72;;
74459;SDS011;62902;48.854;9.292;2022-08-21T04:17:20;8.77;;;4.70;;
74459;SDS011;62902;48.854;9.292;2022-08-21T04:19:47;8.52;;;4.50;;
74459;SDS011;62902;48.854;9.292;2022-08-21T04:22:19;7.07;;;4.57;;
74459;SDS011;62902;48.854;9.292;2022-08-21T04:24:45;7.43;;;4.75;;
74459;SDS011;62902;48.854;9.292;2022-08-21T04:27:12;13.65;;;5.15;;
74459;SDS011;62902;48.854;9.292;2022-08-21T04:29:38;10.38;;;5.10;;
74459;SDS011;62902;48.854;9.292;2022-08-21T04:32:05;7.90;;;5.03;;
74459;SDS011;62902;48.854;9.292;2022-08-21T04:34:32;9.43;;;5.72;;
74459;SDS011;62902;48.854;9.292;2022-08-21T04:36:59;10.20;;;5.63;;
74459;SDS011;62902;48.854;9.292;2022-08-21T04:39:26;7.93;;;5.45;;
74459;SDS011;62902;48.854;9.292;2022-08-21T04:41:55;8.27;;;5.30;;
74459;SDS011;62902;48.854;9.292;2022-08-21T04:44:22;9.25;;;5.78;;
74459;SDS011;62902;48.854;9.292;2022-08-21T04:46:48;8.88;;;5.15;;
74459;SDS011;62902;48.854;9.292;2022-08-21T04:49:15;8.43;;;5.63;;
74459;SDS011;62902;48.854;9.292;2022-08-21T04:51:41;11.32;;;5.88;;
74459;SDS011;62902;48.854;9.292;2022-08-21T04:54:17;9.48;;;4.53;;
74459;SDS011;62902;48.854;9.292;2022-08-21T04:56:50;8.68;;;4.80;;
74459;SDS011;62902;48.854;9.292;2022-08-21T04:59:23;6.07;;;3.95;;
74459;SDS011;62902;48.854;9.292;2022-08-21T05:01:52;8.10;;;4.07;;
74459;SDS011;62902;48.854;9.292;2022-08-21T05:04:21;7.15;;;4.22;;
74459;SDS011;62902;48.854;9.292;2022-08-21T05:06:50;7.40;;;3.97;;
74459;SDS011;62902;48.854;9.292;2022-08-21T05:09:19;9.05;;;4.18;;
74459;SDS011;62902;48.854;9.292;2022-08-21T05:11:46;6.78;;;3.58;;
74459;SDS011;62902;48.854;9.292;2022-08-21T05:14:14;9.27;;;4.05;;
74459;SDS011;62902;48.854;9.292;2022-08-21T05:16:42;5.82;;;3.55;;
74459;SDS011;62902;48.854;9.292;2022-08-21T05:21:41;7.80;;;2.90;;
74459;SDS011;62902;48.854;9.292;2022-08-21T05:24:09;8.15;;;3.28;;
74459;SDS011;62902;48.854;9.292;2022-08-21T05:26:37;5.78;;;2.63;;
74459;SDS011;62902;48.854;9.292;2022-08-21T05:29:11;6.43;;;3.30;;
74459;SDS011;62902;48.854;9.292;2022-08-21T05:31:40;4.32;;;2.67;;
74459;SDS011;62902;48.854;9.292;2022-08-21T05:34:06;4.30;;;2.90;;
74459;SDS011;62902;48.854;9.292;2022-08-21T05:36:34;4.53;;;2.63;;
74459;SDS011;62902;48.854;9.292;2022-08-21T05:39:01;4.40;;;2.72;;
74459;SDS011;62902;48.854;9.292;2022-08-21T05:41:28;4.90;;;3.00;;
74459;SDS011;62902;48.854;9.292;2022-08-21T05:43:55;6.25;;;3.30;;
74459;SDS011;62902;48.854;9.292;2022-08-21T05:46:21;5.90;;;3.50;;
74459;SDS011;62902;48.854;9.292;2022-08-21T05:48:48;6.93;;;3.58;;
74459;SDS011;62902;48.854;9.292;2022-08-21T05:51:15;7.03;;;3.53;;
74459;SDS011;62902;48.854;9.292;2022-08-21T05:53:42;7.15;;;2.90;;
74459;SDS011;62902;48.854;9.292;2022-08-21T05:56:09;6.53;;;3.70;;
74459;SDS011;62902;48.854;9.292;2022-08-21T06:01:04;5.85;;;3.20;;
74459;SDS011;62902;48.854;9.292;2022-08-21T06:03:33;5.97;;;3.38;;
74459;SDS011;62902;48.854;9.292;2022-08-21T06:06:01;5.55;;;3.55;;
74459;SDS011;62902;48.854;9.292;2022-08-21T06:08:28;6.95;;;3.97;;
74459;SDS011;62902;48.854;9.292;2022-08-21T06:10:56;8.70;;;3.88;;
74459;SDS011;62902;48.854;9.292;2022-08-21T06:13:24;7.38;;;4.13;;
74459;SDS011;62902;48.854;9.292;2022-08-21T06:16:00;7.22;;;3.58;;
74459;SDS011;62902;48.854;9.292;2022-08-21T06:18:34;4.80;;;3.10;;
74459;SDS011;62902;48.854;9.292;2022-08-21T06:21:01;5.00;;;3.28;;
74459;SDS011;62902;48.854;9.292;2022-08-21T06:23:29;7.10;;;3.38;;
74459;SDS011;62902;48.854;9.292;2022-08-21T06:25:59;6.85;;;3.38;;
74459;SDS011;62902;48.854;9.292;2022-08-21T06:28:26;7.90;;;3.40;;
74459;SDS011;62902;48.854;9.292;2022-08-21T06:30:53;11.73;;;3.70;;
74459;SDS011;62902;48.854;9.292;2022-08-21T06:33:19;5.72;;;3.67;;
74459;SDS011;62902;48.854;9.292;2022-08-21T06:35:46;6.25;;;3.65;;
74459;SDS011;62902;48.854;9.292;2022-08-21T06:38:13;5.95;;;3.38;;
74459;SDS011;62902;48.854;9.292;2022-08-21T06:40:39;6.45;;;3.60;;
74459;SDS011;62902;48.854;9.292;2022-08-21T06:43:14;8.35;;;3.72;;
74459;SDS011;62902;48.854;9.292;2022-08-21T06:45:42;5.35;;;3.60;;
74459;SDS011;62902;48.854;9.292;2022-08-21T06:48:09;5.32;;;3.60;;
74459;SDS011;62902;48.854;9.292;2022-08-21T06:50:38;7.45;;;3.60;;
74459;SDS011;62902;48.854;9.292;2022-08-21T06:53:06;8.07;;;3.42;;
74459;SDS011;62902;48.854;9.292;2022-08-21T06:55:36;10.20;;;3.50;;
74459;SDS011;62902;48.854;9.292;2022-08-21T06:58:03;7.70;;;3.40;;
74459;SDS011;62902;48.854;9.292;2022-08-21T07:00:30;24.17;;;4.18;;
74459;SDS011;62902;48.854;9.292;2022-08-21T07:02:57;8.27;;;3.50;;
74459;SDS011;62902;48.854;9.292;2022-08-21T07:05:25;6.93;;;3.80;;
74459;SDS011;62902;48.854;9.292;2022-08-21T07:07:53;9.68;;;4.00;;
74459;SDS011;62902;48.854;9.292;2022-08-21T07:10:19;9.77;;;3.47;;
74459;SDS011;62902;48.854;9.292;2022-08-21T07:12:48;7.90;;;3.90;;
74459;SDS011;62902;48.854;9.292;2022-08-21T07:15:25;7.65;;;3.83;;
74459;SDS011;62902;48.854;9.292;2022-08-21T07:17:52;7.10;;;3.65;;
74459;SDS011;62902;48.854;9.292;2022-08-21T07:20:19;10.27;;;3.47;;
74459;SDS011;62902;48.854;9.292;2022-08-21T07:22:46;8.27;;;3.83;;
74459;SDS011;62902;48.854;9.292;2022-08-21T07:25:12;6.05;;;3.53;;
74459;SDS011;62902;48.854;9.292;2022-08-21T07:27:39;9.65;;;3.58;;
74459;SDS011;62902;48.854;9.292;2022-08-21T07:30:06;9.98;;;3.70;;
74459;SDS011;62902;48.854;9.292;2022-08-21T07:32:33;10.55;;;3.75;;
74459;SDS011;62902;48.854;9.292;2022-08-21T07:34:59;9.00;;;3.42;;
74459;SDS011;62902;48.854;9.292;2022-08-21T07:37:26;9.07;;;3.53;;
74459;SDS011;62902;48.854;9.292;2022-08-21T07:39:53;9.90;;;3.78;;
74459;SDS011;62902;48.854;9.292;2022-08-21T07:42:19;9.77;;;3.47;;
74459;SDS011;62902;48.854;9.292;2022-08-21T07:44:46;8.77;;;3.25;;
74459;SDS011;62902;48.854;9.292;2022-08-21T07:47:16;8.25;;;3.38;;
74459;SDS011;62902;48.854;9.292;2022-08-21T07:50:02;6.30;;;3.22;;
74459;SDS011;62902;48.854;9.292;2022-08-21T07:52:30;9.77;;;3.60;;
74459;SDS011;62902;48.854;9.292;2022-08-21T07:54:57;6.82;;;3.25;;
74459;SDS011;62902;48.854;9.292;2022-08-21T07:57:29;6.88;;;3.65;;
74459;SDS011;62902;48.854;9.292;2022-08-21T07:59:55;8.07;;;3.70;;
74459;SDS011;62902;48.854;9.292;2022-08-21T08:02:26;10.90;;;3.80;;
74459;SDS011;62902;48.854;9.292;2022-08-21T08:04:54;7.85;;;3.28;;
74459;SDS011;62902;48.854;9.292;2022-08-21T08:07:25;7.15;;;3.55;;
74459;SDS011;62902;48.854;9.292;2022-08-21T08:09:52;7.57;;;3.58;;
74459;SDS011;62902;48.854;9.292;2022-08-21T08:12:19;7.95;;;3.72;;
74459;SDS011;62902;48.854;9.292;2022-08-21T08:14:46;8.30;;;3.67;;
74459;SDS011;62902;48.854;9.292;2022-08-21T08:17:13;8.52;;;3.42;;
74459;SDS011;62902;48.854;9.292;2022-08-21T08:19:40;10.98;;;3.70;;
74459;SDS011;62902;48.854;9.292;2022-08-21T08:22:13;10.05;;;3.78;;
74459;SDS011;62902;48.854;9.292;2022-08-21T08:24:40;10.15;;;3.70;;
74459;SDS011;62902;48.854;9.292;2022-08-21T08:27:07;10.20;;;3.60;;
74459;SDS011;62902;48.854;9.292;2022-08-21T08:29:34;10.30;;;3.45;;
74459;SDS011;62902;48.854;9.292;2022-08-21T08:32:01;7.03;;;3.33;;
74459;SDS011;62902;48.854;9.292;2022-08-21T08:34:28;8.00;;;3.55;;
74459;SDS011;62902;48.854;9.292;2022-08-21T08:36:56;7.70;;;3.88;;
74459;SDS011;62902;48.854;9.292;2022-08-21T08:39:24;8.57;;;3.92;;
74459;SDS011;62902;48.854;9.292;2022-08-21T08:45:06;7.93;;;3.55;;
74459;SDS011;62902;48.854;9.292;2022-08-21T08:47:35;7.28;;;3.05;;
74459;SDS011;62902;48.854;9.292;2022-08-21T08:50:25;9.10;;;3.42;;
74459;SDS011;62902;48.854;9.292;2022-08-21T08:53:01;6.10;;;3.97;;
74459;SDS011;62902;48.854;9.292;2022-08-21T08:55:55;12.65;;;3.40;;
74459;SDS011;62902;48.854;9.292;2022-08-21T08:58:23;7.65;;;3.60;;
74459;SDS011;62902;48.854;9.292;2022-08-21T09:01:00;10.85;;;3.45;;
74459;SDS011;62902;48.854;9.292;2022-08-21T09:03:27;7.13;;;3.40;;
74459;SDS011;62902;48.854;9.292;2022-08-21T09:13:46;6.70;;;3.45;;
74459;SDS011;62902;48.854;9.292;2022-08-21T09:21:53;8.00;;;3.85;;
74459;SDS011;62902;48.854;9.292;2022-08-21T09:27:18;7.70;;;2.72;;
74459;SDS011;62902;48.854;9.292;2022-08-21T09:29:46;8.23;;;3.47;;
74459;SDS011;62902;48.854;9.292;2022-08-21T09:32:18;8.57;;;3.50;;
74459;SDS011;62902;48.854;9.292;2022-08-21T09:38:00;5.90;;;3.17;;
74459;SDS011;62902;48.854;9.292;2022-08-21T09:43:03;10.63;;;3.50;;
74459;SDS011;62902;48.854;9.292;2022-08-21T09:45:33;9.35;;;3.20;;
74459;SDS011;62902;48.854;9.292;2022-08-21T09:48:23;6.80;;;3.20;;
74459;SDS011;62902;48.854;9.292;2022-08-21T09:50:52;8.43;;;3.03;;
74459;SDS011;62902;48.854;9.292;2022-08-21T09:53:26;7.35;;;3.60;;
74459;SDS011;62902;48.854;9.292;2022-08-21T09:56:04;10.90;;;3.25;;
74459;SDS011;62902;48.854;9.292;2022-08-21T09:58:59;8.40;;;3.17;;
74459;SDS011;62902;48.854;9.292;2022-08-21T10:01:26;7.80;;;3.40;;
74459;SDS011;62902;48.854;9.292;2022-08-21T10:04:08;8.20;;;3.08;;
74459;SDS011;62902;48.854;9.292;2022-08-21T10:06:36;8.05;;;3.20;;
74459;SDS011;62902;48.854;9.292;2022-08-21T10:09:11;8.13;;;3.25;;
74459;SDS011;62902;48.854;9.292;2022-08-21T10:11:58;7.53;;;3.05;;
74459;SDS011;62902;48.854;9.292;2022-08-21T10:17:27;10.30;;;3.28;;
74459;SDS011;62902;48.854;9.292;2022-08-21T10:20:06;8.65;;;3.10;;
74459;SDS011;62902;48.854;9.292;2022-08-21T10:22:50;7.82;;;2.97;;
74459;SDS011;62902;48.854;9.292;2022-08-21T10:25:49;8.95;;;3.22;;
74459;SDS011;62902;48.854;9.292;2022-08-21T10:31:21;8.45;;;3.20;;
74459;SDS011;62902;48.854;9.292;2022-08-21T10:34:10;7.55;;;2.88;;
74459;SDS011;62902;48.854;9.292;2022-08-21T10:42:24;8.77;;;3.03;;
74459;SDS011;62902;48.854;9.292;2022-08-21T10:45:10;8.35;;;3.00;;
74459;SDS011;62902;48.854;9.292;2022-08-21T10:48:05;8.52;;;3.28;;
74459;SDS011;62902;48.854;9.292;2022-08-21T10:50:50;8.35;;;2.55;;
74459;SDS011;62902;48.854;9.292;2022-08-21T10:53:48;9.93;;;3.45;;
74459;SDS011;62902;48.854;9.292;2022-08-21T10:56:54;10.07;;;3.30;;
74459;SDS011;62902;48.854;9.292;2022-08-21T11:00:04;9.50;;;3.25;;
74459;SDS011;62902;48.854;9.292;2022-08-21T11:05:41;9.93;;;2.80;;
74459;SDS011;62902;48.854;9.292;2022-08-21T11:08:30;9.38;;;3.00;;
74459;SDS011;62902;48.854;9.292;2022-08-21T11:11:03;7.32;;;2.65;;
74459;SDS011;62902;48.854;9.292;2022-08-21T11:13:47;8.15;;;2.75;;
74459;SDS011;62902;48.854;9.292;2022-08-21T11:19:28;8.15;;;2.90;;
74459;SDS011;62902;48.854;9.292;2022-08-21T11:22:11;8.60;;;3.55;;
74459;SDS011;62902;48.854;9.292;2022-08-21T11:30:10;10.00;;;3.13;;
74459;SDS011;62902;48.854;9.292;2022-08-21T11:33:27;9.32;;;3.38;;
74459;SDS011;62902;48.854;9.292;2022-08-21T11:39:32;6.18;;;2.30;;
74459;SDS011;62902;48.854;9.292;2022-08-21T11:48:34;6.82;;;2.30;;
74459;SDS011;62902;48.854;9.292;2022-08-21T11:51:28;6.03;;;2.38;;
74459;SDS011;62902;48.854;9.292;2022-08-21T11:54:13;7.55;;;2.63;;
74459;SDS011;62902;48.854;9.292;2022-08-21T11:57:05;6.72;;;2.67;;
74459;SDS011;62902;48.854;9.292;2022-08-21T12:00:20;12.13;;;3.05;;
74459;SDS011;62902;48.854;9.292;2022-08-21T12:02:59;6.78;;;2.75;;
74459;SDS011;62902;48.854;9.292;2022-08-21T12:06:13;10.18;;;2.72;;
74459;SDS011;62902;48.854;9.292;2022-08-21T12:08:57;7.78;;;2.67;;
74459;SDS011;62902;48.854;9.292;2022-08-21T12:12:00;7.85;;;2.38;;
74459;SDS011;62902;48.854;9.292;2022-08-21T12:17:23;9.13;;;2.50;;
74459;SDS011;62902;48.854;9.292;2022-08-21T12:19:59;9.38;;;3.03;;
74459;SDS011;62902;48.854;9.292;2022-08-21T12:22:52;5.43;;;2.38;;
74459;SDS011;62902;48.854;9.292;2022-08-21T12:25:36;7.80;;;2.50;;
74459;SDS011;62902;48.854;9.292;2022-08-21T12:28:26;6.05;;;2.67;;
74459;SDS011;62902;48.854;9.292;2022-08-21T12:31:19;7.55;;;2.42;;
74459;SDS011;62902;48.854;9.292;2022-08-21T12:33:58;5.50;;;2.50;;
74459;SDS011;62902;48.854;9.292;2022-08-21T12:39:44;7.10;;;2.63;;
74459;SDS011;62902;48.854;9.292;2022-08-21T12:42:34;7.97;;;2.40;;
74459;SDS011;62902;48.854;9.292;2022-08-21T12:45:37;7.85;;;2.30;;
74459;SDS011;62902;48.854;9.292;2022-08-21T12:52:28;8.52;;;2.35;;
74459;SDS011;62902;48.854;9.292;2022-08-21T12:54:51;6.03;;;2.00;;
74459;SDS011;62902;48.854;9.292;2022-08-21T12:57:23;6.70;;;2.45;;
74459;SDS011;62902;48.854;9.292;2022-08-21T13:00:04;7.78;;;2.55;;
74459;SDS011;62902;48.854;9.292;2022-08-21T13:02:36;5.78;;;2.10;;
74459;SDS011;62902;48.854;9.292;2022-08-21T13:05:06;5.07;;;2.20;;
74459;SDS011;62902;48.854;9.292;2022-08-21T13:07:34;6.95;;;2.10;;
74459;SDS011;62902;48.854;9.292;2022-08-21T13:12:44;6.05;;;2.20;;
74459;SDS011;62902;48.854;9.292;2022-08-21T13:17:42;7.82;;;2.38;;
74459;SDS011;62902;48.854;9.292;2022-08-21T13:20:22;8.95;;;2.60;;
74459;SDS011;62902;48.854;9.292;2022-08-21T13:22:51;9.55;;;2.50;;
74459;SDS011;62902;48.854;9.292;2022-08-21T13:25:19;6.90;;;2.42;;
74459;SDS011;62902;48.854;9.292;2022-08-21T13:28:00;6.22;;;2.60;;
74459;SDS011;62902;48.854;9.292;2022-08-21T13:30:32;7.72;;;2.40;;
74459;SDS011;62902;48.854;9.292;2022-08-21T13:33:00;5.97;;;2.55;;
74459;SDS011;62902;48.854;9.292;2022-08-21T13:35:30;5.90;;;2.38;;
74459;SDS011;62902;48.854;9.292;2022-08-21T13:38:11;6.65;;;2.40;;
74459;SDS011;62902;48.854;9.292;2022-08-21T13:40:44;5.28;;;2.30;;
74459;SDS011;62902;48.854;9.292;2022-08-21T13:43:21;6.75;;;2.40;;
74459;SDS011;62902;48.854;9.292;2022-08-21T13:45:50;9.63;;;3.05;;
74459;SDS011;62902;48.854;9.292;2022-08-21T13:48:18;7.35;;;2.40;;
74459;SDS011;62902;48.854;9.292;2022-08-21T13:50:46;6.25;;;2.78;;
74459;SDS011;62902;48.854;9.292;2022-08-21T13:53:23;7.35;;;2.75;;
74459;SDS011;62902;48.854;9.292;2022-08-21T13:55:58;6.70;;;2.10;;
74459;SDS011;62902;48.854;9.292;2022-08-21T13:58:27;5.80;;;2.10;;
74459;SDS011;62902;48.854;9.292;2022-08-21T14:00:56;6.28;;;2.08;;
74459;SDS011;62902;48.854;9.292;2022-08-21T14:03:38;6.80;;;2.17;;
74459;SDS011;62902;48.854;9.292;2022-08-21T14:06:12;5.75;;;2.20;;
74459;SDS011;62902;48.854;9.292;2022-08-21T14:08:40;7.18;;;2.22;;
74459;SDS011;62902;48.854;9.292;2022-08-21T14:11:09;6.03;;;2.00;;
74459;SDS011;62902;48.854;9.292;2022-08-21T14:13:42;9.07;;;2.53;;
74459;SDS011;62902;48.854;9.292;2022-08-21T14:16:15;4.53;;;2.00;;
74459;SDS011;62902;48.854;9.292;2022-08-21T14:18:44;8.48;;;2.20;;
74459;SDS011;62902;48.854;9.292;2022-08-21T14:21:32;7.22;;;2.30;;
74459;SDS011;62902;48.854;9.292;2022-08-21T14:24:42;5.93;;;2.67;;
74459;SDS011;62902;48.854;9.292;2022-08-21T14:26:51;6.65;;;1.92;;
74459;SDS011;62902;48.854;9.292;2022-08-21T14:29:20;7.82;;;2.40;;
74459;SDS011;62902;48.854;9.292;2022-08-21T14:31:49;5.68;;;2.08;;
74459;SDS011;62902;48.854;9.292;2022-08-21T14:34:17;6.00;;;2.17;;
74459;SDS011;62902;48.854;9.292;2022-08-21T14:36:45;5.93;;;2.30;;
74459;SDS011;62902;48.854;9.292;2022-08-21T14:39:13;5.38;;;2.08;;
74459;SDS011;62902;48.854;9.292;2022-08-21T14:41:39;5.90;;;2.50;;
74459;SDS011;62902;48.854;9.292;2022-08-21T14:44:06;6.53;;;2.45;;
74459;SDS011;62902;48.854;9.292;2022-08-21T14:46:35;5.93;;;2.75;;
74459;SDS011;62902;48.854;9.292;2022-08-21T14:49:22;5.45;;;2.28;;
74459;SDS011;62902;48.854;9.292;2022-08-21T14:51:49;5.13;;;2.42;;
74459;SDS011;62902;48.854;9.292;2022-08-21T14:54:26;6.65;;;2.22;;
74459;SDS011;62902;48.854;9.292;2022-08-21T14:59:25;5.28;;;1.90;;
74459;SDS011;62902;48.854;9.292;2022-08-21T15:01:52;4.90;;;2.33;;
74459;SDS011;62902;48.854;9.292;2022-08-21T15:04:19;6.28;;;2.15;;
74459;SDS011;62902;48.854;9.292;2022-08-21T15:06:45;5.38;;;2.90;;
74459;SDS011;62902;48.854;9.292;2022-08-21T15:09:12;4.75;;;2.13;;
74459;SDS011;62902;48.854;9.292;2022-08-21T15:11:39;6.70;;;2.08;;
74459;SDS011;62902;48.854;9.292;2022-08-21T15:14:18;4.60;;;2.10;;
74459;SDS011;62902;48.854;9.292;2022-08-21T15:16:51;4.80;;;2.20;;
74459;SDS011;62902;48.854;9.292;2022-08-21T15:19:19;7.70;;;2.15;;
74459;SDS011;62902;48.854;9.292;2022-08-21T15:21:45;7.05;;;2.10;;
74459;SDS011;62902;48.854;9.292;2022-08-21T15:24:12;4.90;;;2.08;;
74459;SDS011;62902;48.854;9.292;2022-08-21T15:26:39;5.32;;;1.85;;
74459;SDS011;62902;48.854;9.292;2022-08-21T15:29:06;4.43;;;2.15;;
74459;SDS011;62902;48.854;9.292;2022-08-21T15:31:33;4.88;;;2.45;;
74459;SDS011;62902;48.854;9.292;2022-08-21T15:34:01;4.40;;;2.00;;
74459;SDS011;62902;48.854;9.292;2022-08-21T15:38:55;7.63;;;2.22;;
74459;SDS011;62902;48.854;9.292;2022-08-21T15:41:21;6.72;;;2.10;;
74459;SDS011;62902;48.854;9.292;2022-08-21T15:43:49;6.53;;;2.25;;
74459;SDS011;62902;48.854;9.292;2022-08-21T15:46:17;4.78;;;2.10;;
74459;SDS011;62902;48.854;9.292;2022-08-21T15:48:45;6.85;;;2.15;;
74459;SDS011;62902;48.854;9.292;2022-08-21T15:51:13;6.30;;;2.08;;
74459;SDS011;62902;48.854;9.292;2022-08-21T15:53:40;5.10;;;1.98;;
74459;SDS011;62902;48.854;9.292;2022-08-21T15:56:50;6.07;;;2.35;;
74459;SDS011;62902;48.854;9.292;2022-08-21T15:59:03;4.47;;;2.03;;
74459;SDS011;62902;48.854;9.292;2022-08-21T16:01:33;6.63;;;2.40;;
74459;SDS011;62902;48.854;9.292;2022-08-21T16:04:10;5.28;;;2.03;;
74459;SDS011;62902;48.854;9.292;2022-08-21T16:06:40;5.65;;;2.00;;
74459;SDS011;62902;48.854;9.292;2022-08-21T16:09:21;5.28;;;2.10;;
74459;SDS011;62902;48.854;9.292;2022-08-21T16:11:48;4.95;;;2.08;;
74459;SDS011;62902;48.854;9.292;2022-08-21T16:14:14;4.88;;;1.85;;
74459;SDS011;62902;48.854;9.292;2022-08-21T16:16:42;6.32;;;2.50;;
74459;SDS011;62902;48.854;9.292;2022-08-21T16:19:09;5.50;;;2.40;;
74459;SDS011;62902;48.854;9.292;2022-08-21T16:21:37;5.18;;;2.00;;
74459;SDS011;62902;48.854;9.292;2022-08-21T16:24:03;5.13;;;2.00;;
74459;SDS011;62902;48.854;9.292;2022-08-21T16:26:30;4.85;;;2.10;;
74459;SDS011;62902;48.854;9.292;2022-08-21T16:28:59;6.30;;;2.20;;
74459;SDS011;62902;48.854;9.292;2022-08-21T16:36:23;5.90;;;1.95;;
74459;SDS011;62902;48.854;9.292;2022-08-21T16:38:52;5.15;;;2.00;;
74459;SDS011;62902;48.854;9.292;2022-08-21T16:41:20;8.00;;;2.10;;
74459;SDS011;62902;48.854;9.292;2022-08-21T16:43:49;5.25;;;2.03;;
74459;SDS011;62902;48.854;9.292;2022-08-21T16:46:17;4.90;;;2.10;;
74459;SDS011;62902;48.854;9.292;2022-08-21T16:48:44;5.78;;;1.90;;
74459;SDS011;62902;48.854;9.292;2022-08-21T16:51:11;7.00;;;2.13;;